• Join FlightAware (Why Join?)
  • Login
  • US Flag 
04:26AM EDT


 

Airport Tracker/Info


-or-


 

Live Flight TrackerFlight Track Log ✈ OPT732 ✈ 13-May-2013 ✈ KPBI - MBPV / PLS

Flight Track Log - Related Links

Times and Time Zones

All times are in EDT time to prevent confusion due to time zone crossing. See the OPT732 flight status page for this flight to view local times or setup timezone preferences in your user account.

Time Position Orientation Groundspeed Altitude Reporting Facility
EDT Latitude Longitude Course Direction KTS MPH feet Rate Location/Type
09:55AM 26.6667 -79.2703 90° East  Level FlightAware Approximate
09:56AM 26.6667 -79.1335 90° East  Level FlightAware Approximate
09:57AM 26.5757 -79.0424 138° Southeast  Level FlightAware Approximate
09:58AM 26.4860 -78.9498 133° Southeast  Level FlightAware Approximate
09:59AM 26.3991 -78.8549 149° Southeast  Level FlightAware Approximate
10:00AM 26.3072 -78.7664 135° Southeast  Level FlightAware Approximate
10:01AM 26.2205 -78.6704 138° Southeast  Level FlightAware Approximate
10:02AM 26.1295 -78.5795 138° Southeast  Level FlightAware Approximate
10:03AM 26.0411 -78.4857 135° Southeast  Level FlightAware Approximate
10:04AM 25.9551 -78.3891 135° Southeast  Level FlightAware Approximate
10:05AM 25.8646 -78.2979 138° Southeast  Level FlightAware Approximate
10:06AM 25.7738 -78.2070 138° Southeast  Level FlightAware Approximate
10:07AM 25.6830 -78.1162 138° Southeast  Level FlightAware Approximate
10:08AM 25.5923 -78.0254 138° Southeast  Level FlightAware Approximate
10:09AM 25.5016 -77.9346 138° Southeast  Level FlightAware Approximate
10:10AM 25.4108 -77.8440 138° Southeast  Level FlightAware Approximate
10:11AM 25.3210 -77.7524 136° Southeast  Level FlightAware Approximate
10:12AM 25.2329 -77.6587 136° Southeast  Level FlightAware Approximate
10:13AM 25.1448 -77.5651 136° Southeast  Level FlightAware Approximate
10:14AM 25.0559 -77.4726 138° Southeast  Level FlightAware Approximate
10:15AM 24.9763 -77.3713 126° Southeast  Level FlightAware Approximate
10:16AM 24.9049 -77.2619 126° Southeast  Level FlightAware Approximate
10:17AM 24.8334 -77.1526 126° Southeast  Level FlightAware Approximate
10:18AM 24.7619 -77.0435 126° Southeast  Level FlightAware Approximate
10:19AM 24.6929 -76.9325 123° Southeast  Level FlightAware Approximate
10:20AM 24.6249 -76.8208 126° Southeast  Level FlightAware Approximate
10:21AM 24.5522 -76.7128 127° Southeast  Level FlightAware Approximate
10:22AM 24.4794 -76.6049 127° Southeast  Level FlightAware Approximate
10:23AM 24.4065 -76.4972 127° Southeast  Level FlightAware Approximate
10:24AM 24.3335 -76.3896 127° Southeast  Level FlightAware Approximate
10:25AM 24.2605 -76.2821 127° Southeast  Level FlightAware Approximate
10:26AM 24.1873 -76.1748 127° Southeast  Level FlightAware Approximate
10:27AM 24.1140 -76.0677 127° Southeast  Level FlightAware Approximate
10:28AM 24.0406 -75.9606 127° Southeast  Level FlightAware Approximate
10:29AM 23.9687 -75.8525 126° Southeast  Level FlightAware Approximate
10:30AM 23.8968 -75.7444 126° Southeast  Level FlightAware Approximate
10:31AM 23.8248 -75.6365 126° Southeast  Level FlightAware Approximate
10:32AM 23.7528 -75.5286 126° Southeast  Level FlightAware Approximate
10:33AM 23.6806 -75.4208 126° Southeast  Level FlightAware Approximate
10:34AM 23.6087 -75.3130 126° Southeast  Level FlightAware Approximate
10:35AM 23.5424 -75.2013 119° Southeast  Level FlightAware Approximate
10:35AM 26.7633 -79.8858 119° Southeast 389 448 7,000  Level Miami Center
10:36AM 23.4840 -75.0843 119° Southeast  Level FlightAware Approximate
10:36AM 26.7422 -79.7922 104° East 318 366 7,000  Level Miami Center
10:37AM 23.4255 -74.9673 119° Southeast  Level FlightAware Approximate
10:37AM 26.7231 -79.7058 104° East 288 331 7,000  Level Miami Center
10:38AM 23.3669 -74.8505 119° Southeast  Level FlightAware Approximate
10:38AM 26.7061 -79.6169 102° East 283 326 7,000  Level Miami Center
10:39AM 23.3085 -74.7336 119° Southeast  Level FlightAware Approximate
10:39AM 26.6847 -79.5306 105° East 283 326 7,100  Level Miami Center
10:40AM 23.2501 -74.6167 119° Southeast  Level FlightAware Approximate
10:40AM 26.6758 -79.4397 96° East 283 326 8,300  Level Miami Center
10:41AM 23.1917 -74.5000 119° Southeast  Level FlightAware Approximate
10:41AM 26.6753 -79.3606 90° East 283 326 9,400  Level Miami Center
10:42AM 26.6639 -79.2836 99° East 283 326 10,500 1,200 Climbing Miami Center
10:43AM 26.6511 -79.1764 98° East 288 331 11,900 2,100 Climbing Miami Center
10:44AM 26.6256 -79.0692 105° East 312 359 14,700 2,880 Climbing Miami Center
10:45AM 26.6103 -78.9664 99° East 331 381 17,700 2,940 Climbing Miami Center
10:46AM 26.5847 -78.8569 105° East 342 394 20,600 2,580 Climbing Miami Center
10:47AM 26.5714 -78.7522 98° East 347 399 22,900 2,100 Climbing Miami Center
10:48AM 26.5247 -78.6444 116° Southeast 360 414 24,900 2,040 Climbing Miami Center
10:49AM 26.4656 -78.5414 123° Southeast 373 429 27,000 2,040 Climbing Miami Center
10:50AM 26.3997 -78.4361 125° Southeast 397 457 29,000 1,920 Climbing Miami Center
10:51AM 26.3361 -78.3242 122° Southeast 416 479 30,900 1,860 Climbing Miami Center
10:52AM 26.2642 -78.2072 124° Southeast 438 504 32,800 1,860 Climbing Miami Center
10:53AM 26.1942 -78.0883 123° Southeast 454 522 34,700 1,860 Climbing Miami Center
10:54AM 26.1200 -77.9628 123° Southeast 467 537 36,600 1,800 Climbing Miami Center
10:55AM 26.0456 -77.8394 124° Southeast 474 545 38,400 1,620 Climbing Miami Center
10:56AM 25.9692 -77.7117 124° Southeast 486 559 39,900 1,500 Climbing Miami Center
10:57AM 25.8925 -77.5864 124° Southeast 493 567 41,400 1,200 Climbing Miami Center
10:58AM 25.8239 -77.4706 123° Southeast 493 567 42,400 1,080 Climbing Miami Center
10:59AM 25.7450 -77.3408 124° Southeast 498 573 43,600 1,080 Climbing Miami Center
11:00AM 25.6661 -77.2114 124° Southeast 498 573 44,600 660 Climbing Miami Center
11:01AM 25.5869 -77.0822 124° Southeast 498 573 45,000 180 Climbing Miami Center
11:02AM 25.5033 -76.9508 125° Southeast 509 586 45,000  Level Miami Center
11:03AM 25.4197 -76.8106 123° Southeast 526 605 45,000  Level Miami Center
11:04AM 25.3278 -76.6611 124° Southeast 539 620 45,000  Level Miami Center
11:05AM 25.2375 -76.5186 125° Southeast 544 626 45,000  Level Miami Center
11:06AM 25.1558 -76.3811 123° Southeast 544 626 45,000  Level Miami Center
11:07AM 25.0694 -76.2461 125° Southeast 544 626 45,000  Level Miami Center
11:08AM 24.9833 -76.1114 125° Southeast 539 620 45,000  Level Miami Center
11:09AM 24.9094 -75.9950 125° Southeast 534 615 45,000  Level Miami Center
11:10AM 24.8250 -75.8606 125° Southeast 534 615 45,000  Level Miami Center
11:11AM 24.7425 -75.7283 124° Southeast 534 615 45,000  Level Miami Center
11:12AM 24.6600 -75.5967 125° Southeast 529 609 45,000  Level Miami Center
11:13AM 24.5750 -75.4625 125° Southeast 529 609 45,000  Level Miami Center
11:14AM 24.4903 -75.3311 125° Southeast 534 615 45,000  Level Miami Center
11:15AM 24.4072 -75.1997 125° Southeast 534 615 45,000  Level Miami Center
11:16AM 24.3222 -75.0686 125° Southeast 534 615 45,000  Level Miami Center
11:17AM 24.2392 -74.9378 125° Southeast 534 615 45,000  Level Miami Center
11:18AM 24.1536 -74.8047 125° Southeast 534 615 45,000  Level Miami Center
11:19AM 24.0617 -74.6606 125° Southeast 534 615 45,000  Level Miami Center
11:20AM 23.9783 -74.5300 125° Southeast 534 615 45,000  Level Miami Center
11:21AM 23.8947 -74.4000 125° Southeast 529 609 45,000  Level Miami Center
11:22AM 23.8089 -74.2722 126° Southeast 529 609 45,000  Level Miami Center
11:23AM 23.7294 -74.1422 124° Southeast 529 609 45,000 -1,440 Level Miami Center
11:24AM 23.6411 -74.0081 126° Southeast 529 609 42,200 -2,760 Descending Miami Center
11:25AM 23.5550 -73.8808 126° Southeast 529 609 39,500 -2,880 Descending Miami Center
11:26AM 23.4753 -73.7489 123° Southeast 529 609 36,500 -3,000 Descending Miami Center
11:27AM 23.3847 -73.6178 127° Southeast 529 609 33,500 -3,000 Descending Miami Center
11:28AM 23.3003 -73.4908 126° Southeast 528 608 30,500 -2,940 Descending Miami Center
11:29AM 23.2181 -73.3642 125° Southeast 520 598 27,700 -2,820 Descending Miami Center
11:30AM 23.1339 -73.2422 127° Southeast 515 593 24,900 -2,700 Descending Miami Center
11:31AM 23.0600 -73.1247 124° Southeast 496 571 22,300 -2,580 Descending Miami Center
11:32AM 22.9861 -73.0164 127° Southeast 469 540 19,800 -2,400 Descending Miami Center
11:33AM 22.9189 -72.9169 126° Southeast 440 506 17,500 -2,340 Descending Miami Center
11:34AM 22.8556 -72.8197 125° Southeast 411 473 15,200 -1,980 Descending Miami Center
11:36AM 22.7947 -72.7294 126° Southeast 389 448 13,200 -1,980 Descending Miami Center
11:37AM 22.7231 -72.6303 128° Southeast 367 422 10,900 -2,100 Descending Miami Center
11:38AM 22.6686 -72.5489 126° Southeast 348 400 9,000 -1,680 Descending Miami Center
11:39AM 22.6025 -72.5017 147° Southeast 307 353 7,600 -1,620 Descending Miami Center
11:40AM 22.5189 -72.4978 178° South 287 330 5,800 -1,920 Descending Miami Center
11:41AM 22.4417 -72.4936 177° South 282 325 3,800 -2,040 Descending Miami Center